sensor_id;sensor_type;location;lat;lon;timestamp;P1;durP1;ratioP1;P2;durP2;ratioP2
5217;SDS011;26539;51.064;6.346;2023-05-16T00:00:03;6.23;;;2.80;;
5217;SDS011;26539;51.064;6.346;2023-05-16T00:02:33;4.00;;;2.80;;
5217;SDS011;26539;51.064;6.346;2023-05-16T00:05:01;8.47;;;3.33;;
5217;SDS011;26539;51.064;6.346;2023-05-16T00:07:28;6.93;;;2.70;;
5217;SDS011;26539;51.064;6.346;2023-05-16T00:09:54;5.90;;;2.50;;
5217;SDS011;26539;51.064;6.346;2023-05-16T00:12:20;4.50;;;2.63;;
5217;SDS011;26539;51.064;6.346;2023-05-16T00:14:46;5.00;;;2.77;;
5217;SDS011;26539;51.064;6.346;2023-05-16T00:17:12;4.00;;;2.10;;
5217;SDS011;26539;51.064;6.346;2023-05-16T00:19:38;3.20;;;2.37;;
5217;SDS011;26539;51.064;6.346;2023-05-16T00:22:04;4.63;;;2.60;;
5217;SDS011;26539;51.064;6.346;2023-05-16T00:24:30;3.80;;;3.20;;
5217;SDS011;26539;51.064;6.346;2023-05-16T00:26:56;5.73;;;3.90;;
5217;SDS011;26539;51.064;6.346;2023-05-16T00:29:22;8.03;;;3.43;;
5217;SDS011;26539;51.064;6.346;2023-05-16T00:31:50;8.13;;;3.70;;
5217;SDS011;26539;51.064;6.346;2023-05-16T00:34:16;3.47;;;2.63;;
5217;SDS011;26539;51.064;6.346;2023-05-16T00:36:42;6.33;;;2.73;;
5217;SDS011;26539;51.064;6.346;2023-05-16T00:39:07;6.90;;;2.60;;
5217;SDS011;26539;51.064;6.346;2023-05-16T00:41:35;6.00;;;3.03;;
5217;SDS011;26539;51.064;6.346;2023-05-16T00:44:01;7.57;;;2.73;;
5217;SDS011;26539;51.064;6.346;2023-05-16T00:46:26;3.33;;;2.47;;
5217;SDS011;26539;51.064;6.346;2023-05-16T00:48:52;11.30;;;2.83;;
5217;SDS011;26539;51.064;6.346;2023-05-16T00:51:17;6.20;;;3.07;;
5217;SDS011;26539;51.064;6.346;2023-05-16T00:53:43;13.63;;;3.97;;
5217;SDS011;26539;51.064;6.346;2023-05-16T00:56:09;8.47;;;3.83;;
5217;SDS011;26539;51.064;6.346;2023-05-16T00:58:35;6.37;;;3.47;;
5217;SDS011;26539;51.064;6.346;2023-05-16T01:01:01;9.30;;;3.93;;
5217;SDS011;26539;51.064;6.346;2023-05-16T01:03:30;7.90;;;3.40;;
5217;SDS011;26539;51.064;6.346;2023-05-16T01:05:56;7.00;;;3.47;;
5217;SDS011;26539;51.064;6.346;2023-05-16T01:08:22;7.87;;;3.30;;
5217;SDS011;26539;51.064;6.346;2023-05-16T01:13:30;9.40;;;3.87;;
5217;SDS011;26539;51.064;6.346;2023-05-16T01:16:32;7.40;;;3.50;;
5217;SDS011;26539;51.064;6.346;2023-05-16T01:24:32;13.27;;;3.90;;
5217;SDS011;26539;51.064;6.346;2023-05-16T01:27:00;8.30;;;3.50;;
5217;SDS011;26539;51.064;6.346;2023-05-16T01:29:28;14.70;;;3.70;;
5217;SDS011;26539;51.064;6.346;2023-05-16T01:31:54;17.60;;;3.70;;
5217;SDS011;26539;51.064;6.346;2023-05-16T01:34:20;8.43;;;3.87;;
5217;SDS011;26539;51.064;6.346;2023-05-16T01:37:47;9.77;;;3.47;;
5217;SDS011;26539;51.064;6.346;2023-05-16T01:39:56;8.87;;;4.07;;
5217;SDS011;26539;51.064;6.346;2023-05-16T01:42:28;14.93;;;4.10;;
5217;SDS011;26539;51.064;6.346;2023-05-16T01:44:59;15.37;;;4.00;;
5217;SDS011;26539;51.064;6.346;2023-05-16T01:47:42;16.50;;;4.00;;
5217;SDS011;26539;51.064;6.346;2023-05-16T01:50:13;11.43;;;4.50;;
5217;SDS011;26539;51.064;6.346;2023-05-16T01:52:42;10.17;;;3.40;;
5217;SDS011;26539;51.064;6.346;2023-05-16T01:55:15;14.17;;;3.60;;
5217;SDS011;26539;51.064;6.346;2023-05-16T01:57:44;13.40;;;3.87;;
5217;SDS011;26539;51.064;6.346;2023-05-16T02:00:12;14.63;;;3.70;;
5217;SDS011;26539;51.064;6.346;2023-05-16T02:02:38;11.73;;;3.87;;
5217;SDS011;26539;51.064;6.346;2023-05-16T02:05:04;16.20;;;4.83;;
5217;SDS011;26539;51.064;6.346;2023-05-16T02:07:30;17.47;;;4.03;;
5217;SDS011;26539;51.064;6.346;2023-05-16T02:09:55;6.70;;;3.40;;
5217;SDS011;26539;51.064;6.346;2023-05-16T02:12:21;8.47;;;3.90;;
5217;SDS011;26539;51.064;6.346;2023-05-16T02:14:46;9.60;;;3.40;;
5217;SDS011;26539;51.064;6.346;2023-05-16T02:17:12;12.93;;;3.93;;
5217;SDS011;26539;51.064;6.346;2023-05-16T02:19:37;12.67;;;4.37;;
5217;SDS011;26539;51.064;6.346;2023-05-16T02:22:03;12.00;;;3.20;;
5217;SDS011;26539;51.064;6.346;2023-05-16T02:24:29;9.67;;;3.20;;
5217;SDS011;26539;51.064;6.346;2023-05-16T02:26:54;14.43;;;4.07;;
5217;SDS011;26539;51.064;6.346;2023-05-16T02:29:20;11.20;;;3.67;;
5217;SDS011;26539;51.064;6.346;2023-05-16T02:31:45;10.63;;;3.80;;
5217;SDS011;26539;51.064;6.346;2023-05-16T02:34:11;7.60;;;3.50;;
5217;SDS011;26539;51.064;6.346;2023-05-16T02:36:36;15.10;;;4.10;;
5217;SDS011;26539;51.064;6.346;2023-05-16T02:39:02;19.20;;;4.33;;
5217;SDS011;26539;51.064;6.346;2023-05-16T02:41:28;14.63;;;4.03;;
5217;SDS011;26539;51.064;6.346;2023-05-16T02:43:54;12.37;;;4.00;;
5217;SDS011;26539;51.064;6.346;2023-05-16T02:46:29;18.57;;;3.90;;
5217;SDS011;26539;51.064;6.346;2023-05-16T02:48:56;17.73;;;4.30;;
5217;SDS011;26539;51.064;6.346;2023-05-16T02:51:23;15.07;;;3.87;;
5217;SDS011;26539;51.064;6.346;2023-05-16T02:53:49;16.70;;;5.40;;
5217;SDS011;26539;51.064;6.346;2023-05-16T02:56:16;13.67;;;3.87;;
5217;SDS011;26539;51.064;6.346;2023-05-16T02:58:43;11.70;;;3.27;;
5217;SDS011;26539;51.064;6.346;2023-05-16T03:01:10;9.87;;;3.50;;
5217;SDS011;26539;51.064;6.346;2023-05-16T03:03:36;15.80;;;3.60;;
5217;SDS011;26539;51.064;6.346;2023-05-16T03:06:02;10.33;;;3.00;;
5217;SDS011;26539;51.064;6.346;2023-05-16T03:08:27;14.70;;;3.23;;
5217;SDS011;26539;51.064;6.346;2023-05-16T03:10:53;12.47;;;3.53;;
5217;SDS011;26539;51.064;6.346;2023-05-16T03:13:18;13.70;;;4.00;;
5217;SDS011;26539;51.064;6.346;2023-05-16T03:15:44;11.80;;;3.40;;
5217;SDS011;26539;51.064;6.346;2023-05-16T03:18:10;10.10;;;3.53;;
5217;SDS011;26539;51.064;6.346;2023-05-16T03:20:36;19.27;;;4.03;;
5217;SDS011;26539;51.064;6.346;2023-05-16T03:23:02;22.73;;;5.70;;
5217;SDS011;26539;51.064;6.346;2023-05-16T03:25:27;13.13;;;3.90;;
5217;SDS011;26539;51.064;6.346;2023-05-16T03:27:53;12.23;;;3.50;;
5217;SDS011;26539;51.064;6.346;2023-05-16T03:30:18;21.33;;;4.50;;
5217;SDS011;26539;51.064;6.346;2023-05-16T03:32:44;14.90;;;3.43;;
5217;SDS011;26539;51.064;6.346;2023-05-16T03:35:10;9.67;;;3.17;;
5217;SDS011;26539;51.064;6.346;2023-05-16T03:37:36;14.13;;;3.87;;
5217;SDS011;26539;51.064;6.346;2023-05-16T03:40:02;12.97;;;3.60;;
5217;SDS011;26539;51.064;6.346;2023-05-16T03:42:31;10.38;;;3.30;;
5217;SDS011;26539;51.064;6.346;2023-05-16T03:44:56;15.60;;;3.30;;
5217;SDS011;26539;51.064;6.346;2023-05-16T03:47:22;8.60;;;3.03;;
5217;SDS011;26539;51.064;6.346;2023-05-16T03:49:48;7.83;;;2.73;;
5217;SDS011;26539;51.064;6.346;2023-05-16T03:52:13;13.80;;;3.83;;
5217;SDS011;26539;51.064;6.346;2023-05-16T03:54:39;15.70;;;3.43;;
5217;SDS011;26539;51.064;6.346;2023-05-16T03:57:04;9.70;;;3.60;;
5217;SDS011;26539;51.064;6.346;2023-05-16T03:59:30;14.93;;;3.47;;
5217;SDS011;26539;51.064;6.346;2023-05-16T04:01:55;12.70;;;3.13;;
5217;SDS011;26539;51.064;6.346;2023-05-16T04:04:21;15.70;;;3.00;;
5217;SDS011;26539;51.064;6.346;2023-05-16T04:06:50;20.17;;;3.38;;
5217;SDS011;26539;51.064;6.346;2023-05-16T04:09:15;17.43;;;4.17;;
5217;SDS011;26539;51.064;6.346;2023-05-16T04:11:41;21.67;;;4.67;;
5217;SDS011;26539;51.064;6.346;2023-05-16T04:14:07;10.35;;;3.63;;
5217;SDS011;26539;51.064;6.346;2023-05-16T04:16:32;12.20;;;4.47;;
5217;SDS011;26539;51.064;6.346;2023-05-16T04:18:58;13.30;;;4.23;;
5217;SDS011;26539;51.064;6.346;2023-05-16T04:21:23;15.47;;;3.90;;
5217;SDS011;26539;51.064;6.346;2023-05-16T04:23:49;18.67;;;3.40;;
5217;SDS011;26539;51.064;6.346;2023-05-16T04:26:14;20.87;;;3.20;;
5217;SDS011;26539;51.064;6.346;2023-05-16T04:28:40;10.73;;;4.57;;
5217;SDS011;26539;51.064;6.346;2023-05-16T04:31:05;6.77;;;2.80;;
5217;SDS011;26539;51.064;6.346;2023-05-16T04:33:32;13.45;;;3.75;;
5217;SDS011;26539;51.064;6.346;2023-05-16T04:35:57;20.83;;;3.30;;
5217;SDS011;26539;51.064;6.346;2023-05-16T04:38:24;11.02;;;3.00;;
5217;SDS011;26539;51.064;6.346;2023-05-16T04:40:49;8.30;;;3.70;;
5217;SDS011;26539;51.064;6.346;2023-05-16T04:43:15;8.13;;;2.87;;
5217;SDS011;26539;51.064;6.346;2023-05-16T04:45:41;12.00;;;2.78;;
5217;SDS011;26539;51.064;6.346;2023-05-16T04:48:07;12.03;;;3.90;;
5217;SDS011;26539;51.064;6.346;2023-05-16T04:50:32;13.73;;;2.93;;
5217;SDS011;26539;51.064;6.346;2023-05-16T04:52:58;16.00;;;3.90;;
5217;SDS011;26539;51.064;6.346;2023-05-16T04:55:23;9.13;;;3.00;;
5217;SDS011;26539;51.064;6.346;2023-05-16T04:57:49;13.50;;;3.10;;
5217;SDS011;26539;51.064;6.346;2023-05-16T05:00:15;10.80;;;3.40;;
5217;SDS011;26539;51.064;6.346;2023-05-16T05:02:41;11.00;;;3.70;;
5217;SDS011;26539;51.064;6.346;2023-05-16T05:05:07;14.40;;;3.33;;
5217;SDS011;26539;51.064;6.346;2023-05-16T05:07:33;10.43;;;2.30;;
5217;SDS011;26539;51.064;6.346;2023-05-16T05:09:58;12.33;;;3.77;;
5217;SDS011;26539;51.064;6.346;2023-05-16T05:12:24;13.50;;;3.63;;
5217;SDS011;26539;51.064;6.346;2023-05-16T05:14:51;15.93;;;3.50;;
5217;SDS011;26539;51.064;6.346;2023-05-16T05:17:18;14.10;;;3.57;;
5217;SDS011;26539;51.064;6.346;2023-05-16T05:19:45;6.47;;;3.20;;
5217;SDS011;26539;51.064;6.346;2023-05-16T05:22:10;13.77;;;3.10;;
5217;SDS011;26539;51.064;6.346;2023-05-16T05:24:36;13.10;;;3.53;;
5217;SDS011;26539;51.064;6.346;2023-05-16T05:27:02;7.90;;;2.30;;
5217;SDS011;26539;51.064;6.346;2023-05-16T05:29:28;12.77;;;3.80;;
5217;SDS011;26539;51.064;6.346;2023-05-16T05:31:53;15.40;;;3.17;;
5217;SDS011;26539;51.064;6.346;2023-05-16T05:34:19;12.77;;;3.40;;
5217;SDS011;26539;51.064;6.346;2023-05-16T05:36:45;17.23;;;3.67;;
5217;SDS011;26539;51.064;6.346;2023-05-16T05:39:10;9.97;;;4.20;;
5217;SDS011;26539;51.064;6.346;2023-05-16T05:41:36;16.33;;;3.43;;
5217;SDS011;26539;51.064;6.346;2023-05-16T05:44:02;15.47;;;3.10;;
5217;SDS011;26539;51.064;6.346;2023-05-16T05:46:28;6.60;;;2.87;;
5217;SDS011;26539;51.064;6.346;2023-05-16T05:48:54;9.07;;;2.50;;
5217;SDS011;26539;51.064;6.346;2023-05-16T05:51:19;10.57;;;2.90;;
5217;SDS011;26539;51.064;6.346;2023-05-16T05:53:45;14.70;;;3.23;;
5217;SDS011;26539;51.064;6.346;2023-05-16T05:56:10;8.50;;;2.70;;
5217;SDS011;26539;51.064;6.346;2023-05-16T05:58:37;12.60;;;3.00;;
5217;SDS011;26539;51.064;6.346;2023-05-16T06:01:03;15.40;;;3.50;;
5217;SDS011;26539;51.064;6.346;2023-05-16T06:03:28;8.20;;;2.77;;
5217;SDS011;26539;51.064;6.346;2023-05-16T06:05:54;10.83;;;2.83;;
5217;SDS011;26539;51.064;6.346;2023-05-16T06:08:20;8.70;;;2.60;;
5217;SDS011;26539;51.064;6.346;2023-05-16T06:10:46;10.77;;;3.27;;
5217;SDS011;26539;51.064;6.346;2023-05-16T06:13:12;10.40;;;3.10;;
5217;SDS011;26539;51.064;6.346;2023-05-16T06:15:37;9.00;;;2.77;;
5217;SDS011;26539;51.064;6.346;2023-05-16T06:18:03;13.27;;;2.57;;
5217;SDS011;26539;51.064;6.346;2023-05-16T06:20:28;7.57;;;2.43;;
5217;SDS011;26539;51.064;6.346;2023-05-16T06:22:54;8.60;;;2.50;;
5217;SDS011;26539;51.064;6.346;2023-05-16T06:25:20;8.10;;;2.13;;
5217;SDS011;26539;51.064;6.346;2023-05-16T06:27:48;13.13;;;2.97;;
5217;SDS011;26539;51.064;6.346;2023-05-16T06:30:13;12.20;;;2.53;;
5217;SDS011;26539;51.064;6.346;2023-05-16T06:32:39;9.00;;;2.20;;
5217;SDS011;26539;51.064;6.346;2023-05-16T06:35:05;11.90;;;2.43;;
5217;SDS011;26539;51.064;6.346;2023-05-16T06:37:33;7.40;;;2.60;;
5217;SDS011;26539;51.064;6.346;2023-05-16T06:39:58;8.73;;;2.50;;
5217;SDS011;26539;51.064;6.346;2023-05-16T06:42:24;7.00;;;2.80;;
5217;SDS011;26539;51.064;6.346;2023-05-16T06:44:49;6.70;;;2.10;;
5217;SDS011;26539;51.064;6.346;2023-05-16T06:47:15;8.50;;;2.20;;
5217;SDS011;26539;51.064;6.346;2023-05-16T06:49:40;6.10;;;2.13;;
5217;SDS011;26539;51.064;6.346;2023-05-16T06:52:06;7.27;;;1.90;;
5217;SDS011;26539;51.064;6.346;2023-05-16T06:54:31;8.10;;;2.30;;
5217;SDS011;26539;51.064;6.346;2023-05-16T06:56:57;7.97;;;1.90;;
5217;SDS011;26539;51.064;6.346;2023-05-16T06:59:22;4.90;;;1.67;;
5217;SDS011;26539;51.064;6.346;2023-05-16T07:01:48;6.20;;;2.07;;
5217;SDS011;26539;51.064;6.346;2023-05-16T07:04:13;5.73;;;1.87;;
5217;SDS011;26539;51.064;6.346;2023-05-16T07:06:39;7.63;;;2.10;;
5217;SDS011;26539;51.064;6.346;2023-05-16T07:09:05;8.73;;;2.30;;
5217;SDS011;26539;51.064;6.346;2023-05-16T07:11:31;6.20;;;2.20;;
5217;SDS011;26539;51.064;6.346;2023-05-16T07:13:56;8.13;;;2.63;;
5217;SDS011;26539;51.064;6.346;2023-05-16T07:16:22;9.80;;;2.17;;
5217;SDS011;26539;51.064;6.346;2023-05-16T07:18:48;9.50;;;3.33;;
5217;SDS011;26539;51.064;6.346;2023-05-16T07:21:13;9.33;;;2.43;;
5217;SDS011;26539;51.064;6.346;2023-05-16T07:23:39;12.87;;;2.60;;
5217;SDS011;26539;51.064;6.346;2023-05-16T07:26:05;7.73;;;2.67;;
5217;SDS011;26539;51.064;6.346;2023-05-16T07:28:30;6.63;;;2.97;;
5217;SDS011;26539;51.064;6.346;2023-05-16T07:30:56;10.13;;;2.40;;
5217;SDS011;26539;51.064;6.346;2023-05-16T07:33:23;11.07;;;2.73;;
5217;SDS011;26539;51.064;6.346;2023-05-16T07:35:49;12.53;;;2.60;;
5217;SDS011;26539;51.064;6.346;2023-05-16T07:38:15;8.83;;;2.50;;
5217;SDS011;26539;51.064;6.346;2023-05-16T07:40:40;9.00;;;2.63;;
5217;SDS011;26539;51.064;6.346;2023-05-16T07:43:06;8.87;;;2.17;;
5217;SDS011;26539;51.064;6.346;2023-05-16T07:45:32;8.73;;;2.20;;
5217;SDS011;26539;51.064;6.346;2023-05-16T07:47:57;8.57;;;2.40;;
5217;SDS011;26539;51.064;6.346;2023-05-16T07:50:23;7.67;;;2.40;;
5217;SDS011;26539;51.064;6.346;2023-05-16T07:52:49;6.50;;;1.97;;
5217;SDS011;26539;51.064;6.346;2023-05-16T07:55:15;11.90;;;2.57;;
5217;SDS011;26539;51.064;6.346;2023-05-16T07:57:40;7.77;;;2.00;;
5217;SDS011;26539;51.064;6.346;2023-05-16T08:00:07;7.77;;;1.80;;
5217;SDS011;26539;51.064;6.346;2023-05-16T08:02:33;6.90;;;1.90;;
5217;SDS011;26539;51.064;6.346;2023-05-16T08:04:59;6.10;;;1.70;;
5217;SDS011;26539;51.064;6.346;2023-05-16T08:07:25;7.57;;;2.23;;
5217;SDS011;26539;51.064;6.346;2023-05-16T08:09:51;5.67;;;2.47;;
5217;SDS011;26539;51.064;6.346;2023-05-16T08:12:16;6.00;;;2.33;;
5217;SDS011;26539;51.064;6.346;2023-05-16T08:14:42;8.10;;;2.33;;
5217;SDS011;26539;51.064;6.346;2023-05-16T08:17:10;7.80;;;2.17;;
5217;SDS011;26539;51.064;6.346;2023-05-16T08:19:38;7.83;;;2.60;;
5217;SDS011;26539;51.064;6.346;2023-05-16T08:22:05;5.70;;;2.30;;
5217;SDS011;26539;51.064;6.346;2023-05-16T08:24:31;6.07;;;2.20;;
5217;SDS011;26539;51.064;6.346;2023-05-16T08:26:57;10.30;;;2.30;;
5217;SDS011;26539;51.064;6.346;2023-05-16T08:29:22;6.87;;;2.03;;
5217;SDS011;26539;51.064;6.346;2023-05-16T08:31:48;5.43;;;1.77;;
5217;SDS011;26539;51.064;6.346;2023-05-16T08:34:13;6.87;;;2.23;;
5217;SDS011;26539;51.064;6.346;2023-05-16T08:36:39;5.50;;;1.70;;
5217;SDS011;26539;51.064;6.346;2023-05-16T08:39:04;6.50;;;2.00;;
5217;SDS011;26539;51.064;6.346;2023-05-16T08:41:31;5.50;;;2.23;;
5217;SDS011;26539;51.064;6.346;2023-05-16T08:43:57;4.87;;;1.67;;
5217;SDS011;26539;51.064;6.346;2023-05-16T08:46:22;6.97;;;1.70;;
5217;SDS011;26539;51.064;6.346;2023-05-16T08:48:51;6.43;;;1.73;;
5217;SDS011;26539;51.064;6.346;2023-05-16T08:51:17;5.97;;;1.67;;
5217;SDS011;26539;51.064;6.346;2023-05-16T08:53:59;7.87;;;1.50;;
5217;SDS011;26539;51.064;6.346;2023-05-16T08:56:29;6.63;;;1.80;;
5217;SDS011;26539;51.064;6.346;2023-05-16T08:58:57;6.33;;;1.67;;
5217;SDS011;26539;51.064;6.346;2023-05-16T09:01:23;6.90;;;1.70;;
5217;SDS011;26539;51.064;6.346;2023-05-16T09:03:49;4.17;;;1.60;;
5217;SDS011;26539;51.064;6.346;2023-05-16T09:06:15;9.23;;;2.30;;
5217;SDS011;26539;51.064;6.346;2023-05-16T09:08:41;4.67;;;1.80;;
5217;SDS011;26539;51.064;6.346;2023-05-16T09:11:08;4.60;;;2.00;;
5217;SDS011;26539;51.064;6.346;2023-05-16T09:13:33;6.07;;;1.90;;
5217;SDS011;26539;51.064;6.346;2023-05-16T09:16:12;5.53;;;1.60;;
5217;SDS011;26539;51.064;6.346;2023-05-16T09:18:39;6.47;;;1.50;;
5217;SDS011;26539;51.064;6.346;2023-05-16T09:21:08;6.20;;;1.93;;
5217;SDS011;26539;51.064;6.346;2023-05-16T09:23:35;4.57;;;1.70;;
5217;SDS011;26539;51.064;6.346;2023-05-16T09:26:06;6.90;;;2.27;;
5217;SDS011;26539;51.064;6.346;2023-05-16T09:28:36;7.03;;;1.90;;
5217;SDS011;26539;51.064;6.346;2023-05-16T09:31:03;8.13;;;2.03;;
5217;SDS011;26539;51.064;6.346;2023-05-16T09:33:43;3.63;;;1.20;;
5217;SDS011;26539;51.064;6.346;2023-05-16T09:36:08;9.60;;;1.83;;
5217;SDS011;26539;51.064;6.346;2023-05-16T09:38:34;5.47;;;1.60;;
5217;SDS011;26539;51.064;6.346;2023-05-16T09:41:00;7.10;;;2.00;;
5217;SDS011;26539;51.064;6.346;2023-05-16T09:43:26;6.07;;;2.20;;
5217;SDS011;26539;51.064;6.346;2023-05-16T09:45:52;7.03;;;1.60;;
5217;SDS011;26539;51.064;6.346;2023-05-16T09:48:19;5.87;;;2.37;;
5217;SDS011;26539;51.064;6.346;2023-05-16T09:50:46;11.77;;;3.17;;
5217;SDS011;26539;51.064;6.346;2023-05-16T09:53:16;14.30;;;2.77;;
5217;SDS011;26539;51.064;6.346;2023-05-16T09:55:42;8.47;;;2.03;;
5217;SDS011;26539;51.064;6.346;2023-05-16T09:58:08;5.97;;;1.50;;
5217;SDS011;26539;51.064;6.346;2023-05-16T10:00:33;3.03;;;1.47;;
5217;SDS011;26539;51.064;6.346;2023-05-16T10:03:00;3.33;;;1.30;;
5217;SDS011;26539;51.064;6.346;2023-05-16T10:05:27;4.10;;;1.47;;
5217;SDS011;26539;51.064;6.346;2023-05-16T10:07:55;5.67;;;1.73;;
5217;SDS011;26539;51.064;6.346;2023-05-16T10:10:22;5.47;;;1.30;;
5217;SDS011;26539;51.064;6.346;2023-05-16T10:12:50;4.97;;;1.80;;
5217;SDS011;26539;51.064;6.346;2023-05-16T10:15:17;4.97;;;1.50;;
5217;SDS011;26539;51.064;6.346;2023-05-16T10:17:44;4.83;;;1.97;;
5217;SDS011;26539;51.064;6.346;2023-05-16T10:20:15;7.57;;;1.53;;
5217;SDS011;26539;51.064;6.346;2023-05-16T10:22:44;5.53;;;1.60;;
5217;SDS011;26539;51.064;6.346;2023-05-16T10:28:02;7.17;;;2.20;;
5217;SDS011;26539;51.064;6.346;2023-05-16T10:30:28;6.33;;;1.70;;
5217;SDS011;26539;51.064;6.346;2023-05-16T10:32:57;6.20;;;1.80;;
5217;SDS011;26539;51.064;6.346;2023-05-16T10:35:24;7.70;;;2.63;;
5217;SDS011;26539;51.064;6.346;2023-05-16T10:37:51;5.23;;;1.70;;
5217;SDS011;26539;51.064;6.346;2023-05-16T10:40:17;4.50;;;1.47;;
5217;SDS011;26539;51.064;6.346;2023-05-16T10:42:53;10.10;;;1.90;;
5217;SDS011;26539;51.064;6.346;2023-05-16T10:45:22;4.80;;;1.70;;
5217;SDS011;26539;51.064;6.346;2023-05-16T10:47:51;5.73;;;1.20;;
5217;SDS011;26539;51.064;6.346;2023-05-16T10:53:18;5.97;;;1.60;;
5217;SDS011;26539;51.064;6.346;2023-05-16T11:01:18;5.23;;;1.43;;
5217;SDS011;26539;51.064;6.346;2023-05-16T11:11:43;3.83;;;1.10;;
5217;SDS011;26539;51.064;6.346;2023-05-16T11:14:21;3.40;;;1.30;;
5217;SDS011;26539;51.064;6.346;2023-05-16T11:17:00;6.60;;;1.37;;
5217;SDS011;26539;51.064;6.346;2023-05-16T11:22:10;2.40;;;0.90;;
5217;SDS011;26539;51.064;6.346;2023-05-16T11:24:49;5.00;;;1.40;;
5217;SDS011;26539;51.064;6.346;2023-05-16T11:27:19;4.23;;;1.60;;
5217;SDS011;26539;51.064;6.346;2023-05-16T11:29:47;3.30;;;1.20;;
5217;SDS011;26539;51.064;6.346;2023-05-16T11:32:13;5.63;;;1.43;;
5217;SDS011;26539;51.064;6.346;2023-05-16T11:34:43;3.27;;;1.20;;
5217;SDS011;26539;51.064;6.346;2023-05-16T11:37:11;5.90;;;1.33;;
5217;SDS011;26539;51.064;6.346;2023-05-16T11:39:37;5.90;;;1.40;;
5217;SDS011;26539;51.064;6.346;2023-05-16T11:42:02;4.33;;;1.10;;
5217;SDS011;26539;51.064;6.346;2023-05-16T11:44:28;2.80;;;1.10;;
5217;SDS011;26539;51.064;6.346;2023-05-16T11:46:53;3.30;;;1.30;;
5217;SDS011;26539;51.064;6.346;2023-05-16T11:49:19;4.03;;;1.50;;
5217;SDS011;26539;51.064;6.346;2023-05-16T11:51:45;2.80;;;0.97;;
5217;SDS011;26539;51.064;6.346;2023-05-16T11:54:11;3.07;;;1.00;;
5217;SDS011;26539;51.064;6.346;2023-05-16T11:56:37;2.17;;;1.03;;
5217;SDS011;26539;51.064;6.346;2023-05-16T11:59:07;4.27;;;1.17;;
5217;SDS011;26539;51.064;6.346;2023-05-16T12:01:36;1.97;;;0.97;;
5217;SDS011;26539;51.064;6.346;2023-05-16T12:04:09;4.80;;;1.20;;
5217;SDS011;26539;51.064;6.346;2023-05-16T12:06:36;3.63;;;1.20;;
5217;SDS011;26539;51.064;6.346;2023-05-16T12:09:06;5.40;;;1.07;;
5217;SDS011;26539;51.064;6.346;2023-05-16T12:11:40;2.60;;;0.80;;
5217;SDS011;26539;51.064;6.346;2023-05-16T12:14:07;2.50;;;1.03;;
5217;SDS011;26539;51.064;6.346;2023-05-16T12:16:34;2.83;;;1.10;;
5217;SDS011;26539;51.064;6.346;2023-05-16T12:19:02;3.70;;;0.80;;
5217;SDS011;26539;51.064;6.346;2023-05-16T12:21:29;3.77;;;1.23;;
5217;SDS011;26539;51.064;6.346;2023-05-16T12:23:58;3.27;;;0.80;;
5217;SDS011;26539;51.064;6.346;2023-05-16T12:26:28;2.77;;;0.80;;
5217;SDS011;26539;51.064;6.346;2023-05-16T12:28:56;3.40;;;1.10;;
5217;SDS011;26539;51.064;6.346;2023-05-16T12:31:24;1.60;;;0.80;;
5217;SDS011;26539;51.064;6.346;2023-05-16T12:33:53;2.80;;;1.03;;
5217;SDS011;26539;51.064;6.346;2023-05-16T12:36:19;2.10;;;1.30;;
5217;SDS011;26539;51.064;6.346;2023-05-16T12:38:45;3.93;;;1.43;;
5217;SDS011;26539;51.064;6.346;2023-05-16T12:41:16;1.40;;;0.80;;
5217;SDS011;26539;51.064;6.346;2023-05-16T12:43:43;2.73;;;0.80;;
5217;SDS011;26539;51.064;6.346;2023-05-16T12:46:09;2.73;;;1.23;;
5217;SDS011;26539;51.064;6.346;2023-05-16T12:48:36;4.40;;;1.07;;
5217;SDS011;26539;51.064;6.346;2023-05-16T12:51:09;2.83;;;0.90;;
5217;SDS011;26539;51.064;6.346;2023-05-16T12:56:09;4.37;;;1.30;;
5217;SDS011;26539;51.064;6.346;2023-05-16T12:58:35;2.03;;;0.90;;
5217;SDS011;26539;51.064;6.346;2023-05-16T13:01:01;3.57;;;1.10;;
5217;SDS011;26539;51.064;6.346;2023-05-16T13:03:27;3.10;;;1.10;;
5217;SDS011;26539;51.064;6.346;2023-05-16T13:05:54;3.70;;;1.30;;
5217;SDS011;26539;51.064;6.346;2023-05-16T13:08:19;4.80;;;1.70;;
5217;SDS011;26539;51.064;6.346;2023-05-16T13:10:45;4.07;;;1.43;;
5217;SDS011;26539;51.064;6.346;2023-05-16T13:13:11;4.53;;;1.20;;
5217;SDS011;26539;51.064;6.346;2023-05-16T13:15:36;6.20;;;1.23;;
5217;SDS011;26539;51.064;6.346;2023-05-16T13:18:02;2.90;;;0.93;;
5217;SDS011;26539;51.064;6.346;2023-05-16T13:20:27;2.43;;;1.20;;
5217;SDS011;26539;51.064;6.346;2023-05-16T13:22:53;4.40;;;1.30;;
5217;SDS011;26539;51.064;6.346;2023-05-16T13:25:19;5.30;;;1.50;;
5217;SDS011;26539;51.064;6.346;2023-05-16T13:27:45;4.57;;;1.23;;
5217;SDS011;26539;51.064;6.346;2023-05-16T13:30:13;6.13;;;1.60;;
5217;SDS011;26539;51.064;6.346;2023-05-16T13:32:39;4.97;;;1.43;;
5217;SDS011;26539;51.064;6.346;2023-05-16T13:35:05;2.27;;;1.10;;
5217;SDS011;26539;51.064;6.346;2023-05-16T13:37:31;5.47;;;1.93;;
5217;SDS011;26539;51.064;6.346;2023-05-16T13:39:56;7.27;;;1.43;;
5217;SDS011;26539;51.064;6.346;2023-05-16T13:42:22;4.03;;;1.50;;
5217;SDS011;26539;51.064;6.346;2023-05-16T13:44:47;11.00;;;2.47;;
5217;SDS011;26539;51.064;6.346;2023-05-16T13:47:13;3.30;;;1.27;;
5217;SDS011;26539;51.064;6.346;2023-05-16T13:49:39;4.23;;;1.17;;
5217;SDS011;26539;51.064;6.346;2023-05-16T13:52:05;2.37;;;1.00;;
5217;SDS011;26539;51.064;6.346;2023-05-16T13:54:31;3.50;;;1.17;;
5217;SDS011;26539;51.064;6.346;2023-05-16T13:56:57;8.93;;;1.40;;
5217;SDS011;26539;51.064;6.346;2023-05-16T13:59:23;5.50;;;1.17;;
5217;SDS011;26539;51.064;6.346;2023-05-16T14:01:48;3.07;;;1.30;;
5217;SDS011;26539;51.064;6.346;2023-05-16T14:04:14;3.03;;;1.30;;
5217;SDS011;26539;51.064;6.346;2023-05-16T14:06:40;3.53;;;1.37;;
5217;SDS011;26539;51.064;6.346;2023-05-16T14:09:05;3.63;;;1.50;;
5217;SDS011;26539;51.064;6.346;2023-05-16T14:11:32;5.53;;;1.80;;
5217;SDS011;26539;51.064;6.346;2023-05-16T14:13:57;5.03;;;1.60;;
5217;SDS011;26539;51.064;6.346;2023-05-16T14:16:23;3.77;;;1.20;;
5217;SDS011;26539;51.064;6.346;2023-05-16T14:18:49;6.83;;;1.63;;
5217;SDS011;26539;51.064;6.346;2023-05-16T14:21:15;6.93;;;1.27;;
5217;SDS011;26539;51.064;6.346;2023-05-16T14:23:41;6.20;;;1.30;;
5217;SDS011;26539;51.064;6.346;2023-05-16T14:26:06;4.57;;;1.90;;
5217;SDS011;26539;51.064;6.346;2023-05-16T14:28:32;7.33;;;1.70;;
5217;SDS011;26539;51.064;6.346;2023-05-16T14:30:58;4.57;;;1.10;;
5217;SDS011;26539;51.064;6.346;2023-05-16T14:33:24;3.13;;;1.30;;
5217;SDS011;26539;51.064;6.346;2023-05-16T14:35:50;2.77;;;1.50;;
5217;SDS011;26539;51.064;6.346;2023-05-16T14:38:16;2.90;;;1.20;;
5217;SDS011;26539;51.064;6.346;2023-05-16T14:40:41;5.20;;;1.83;;
5217;SDS011;26539;51.064;6.346;2023-05-16T14:43:07;3.90;;;1.30;;
5217;SDS011;26539;51.064;6.346;2023-05-16T14:45:32;4.27;;;1.60;;
5217;SDS011;26539;51.064;6.346;2023-05-16T14:47:58;6.60;;;1.33;;
5217;SDS011;26539;51.064;6.346;2023-05-16T14:50:24;4.10;;;1.70;;
5217;SDS011;26539;51.064;6.346;2023-05-16T14:52:49;2.90;;;1.30;;
5217;SDS011;26539;51.064;6.346;2023-05-16T14:55:16;3.50;;;1.57;;
5217;SDS011;26539;51.064;6.346;2023-05-16T14:57:42;2.90;;;1.50;;
5217;SDS011;26539;51.064;6.346;2023-05-16T15:00:08;6.13;;;1.50;;
5217;SDS011;26539;51.064;6.346;2023-05-16T15:02:34;3.27;;;1.30;;
5217;SDS011;26539;51.064;6.346;2023-05-16T15:05:00;5.50;;;2.07;;
5217;SDS011;26539;51.064;6.346;2023-05-16T15:07:25;5.40;;;1.70;;
5217;SDS011;26539;51.064;6.346;2023-05-16T15:09:51;3.20;;;1.50;;
5217;SDS011;26539;51.064;6.346;2023-05-16T15:12:16;9.73;;;2.00;;
5217;SDS011;26539;51.064;6.346;2023-05-16T15:14:42;3.47;;;1.30;;
5217;SDS011;26539;51.064;6.346;2023-05-16T15:17:07;4.53;;;1.37;;
5217;SDS011;26539;51.064;6.346;2023-05-16T15:19:33;7.10;;;1.67;;
5217;SDS011;26539;51.064;6.346;2023-05-16T15:21:58;6.53;;;2.10;;
5217;SDS011;26539;51.064;6.346;2023-05-16T15:24:24;4.30;;;1.57;;
5217;SDS011;26539;51.064;6.346;2023-05-16T15:26:49;3.70;;;1.50;;